Imke — PHGG — position and weather

sailwx.info

Track history (hours):
 
Tides and Currents Weather Stations Pressure Air Temp Water Temp Dewpoint Dewpoint Depression Visibility Wind Speed Wind Dir Waves Ship Positions

Imke

Last reported at 2018-Jul-16 05:51 UTC. Time now 2018-Jul-16 06:25 UTC.
Position N 60°32' E 027°11'.

Length 112 m; draft 5.9 m.

Type: Cargo ship. MMSI: 246535000.

Date/timePositionNaut miles runAvg speedWind from/ knotsBaromVisibWave heightAir tempDewpointWater temp
2018-Jul-16 05:51N 60°32' E 027°11'0 0.0
2018-Jul-16 04:28N 60°32' E 027°11'0 0.0
2018-Jul-16 04:00N 60°32' E 027°11'0 0.0
2018-Jul-16 03:26N 60°32' E 027°11'0 0.0
2018-Jul-16 02:56N 60°32' E 027°11'0 0.0
2018-Jul-16 02:30N 60°32' E 027°11'0 0.0
2018-Jul-16 02:00N 60°32' E 027°11'0 0.0
2018-Jul-16 01:30N 60°32' E 027°11'0 0.0
2018-Jul-16 01:00N 60°32' E 027°11'0 0.0
2018-Jul-16 00:30N 60°32' E 027°11'0 0.0
2018-Jul-15 23:57N 60°32' E 027°11'0 0.0
2018-Jul-15 23:30N 60°32' E 027°11'0 0.0
2018-Jul-15 23:00N 60°32' E 027°11'0 0.0
2018-Jul-15 22:28N 60°32' E 027°11'0 0.0
2018-Jul-15 21:59N 60°32' E 027°11'0 0.1
2018-Jul-15 18:03N 60°32' E 027°11'1 4.3
2018-Jul-15 17:52N 60°31' E 027°10'3 9.6
2018-Jul-15 17:30N 60°28' E 027°09'611.1
2018-Jul-15 17:00N 60°22' E 027°06'510.8
2018-Jul-15 16:30N 60°22' E 026°55'611.4
2018-Jul-15 16:00N 60°22' E 026°43'611.5
2018-Jul-15 15:30N 60°19' E 026°34'611.1
2018-Jul-15 15:00N 60°15' E 026°26'5 9.7
2018-Jul-15 14:30N 60°11' E 026°22'510.3
2018-Jul-15 14:00N 60°06' E 026°16'810.4
2018-Jul-15 13:12N 60°00' E 026°04'1210.1
2018-Jul-15 12:03N 59°53' E 025°47'110.3
2018-Jul-15 11:55N 59°53' E 025°44'510.5
2018-Jul-15 11:27N 59°51' E 025°35'810.6
2018-Jul-15 10:40N 59°49' E 025°19'410.6
2018-Jul-15 10:18N 59°49' E 025°11'310.5
2018-Jul-15 10:00N 59°48' E 025°05'610.6
2018-Jul-15 09:24N 59°46' E 024°53'410.7
2018-Jul-15 09:00N 59°45' E 024°45'511.0
2018-Jul-15 08:30N 59°44' E 024°34'510.5
2018-Jul-15 08:00N 59°43' E 024°24'1310.6
2018-Jul-15 06:47N 59°39' E 023°60'310.5
2018-Jul-15 06:28N 59°38' E 023°54'510.5
2018-Jul-15 06:00N 59°36' E 023°44'510.9
2018-Jul-15 05:30N 59°34' E 023°34'611.1
2018-Jul-15 05:00N 59°33' E 023°24'611.1
2018-Jul-15 04:30N 59°31' E 023°13'611.1
2018-Jul-15 04:00N 59°29' E 023°03'611.1
2018-Jul-15 03:30N 59°27' E 022°53'510.9
2018-Jul-15 03:00N 59°26' E 022°43'1211.1
2018-Jul-15 01:57N 59°19' E 022°23'611.1
2018-Jul-15 01:22N 59°15' E 022°13'411.0
2018-Jul-15 01:00N 59°13' E 022°07'611.0
2018-Jul-15 00:30N 59°09' E 021°59'510.9
2018-Jul-15 00:00N 59°06' E 021°50'510.6
2018-Jul-14 23:30N 59°03' E 021°42'510.7
2018-Jul-14 23:00N 58°58' E 021°36'610.6
2018-Jul-14 22:29N 58°54' E 021°30'810.9
2018-Jul-14 21:45N 58°48' E 021°21'16610.9
2018-Jul-14 06:32N 56°38' E 018°05'111.0
2018-Jul-14 06:30N 56°38' E 018°05'1110.8
2018-Jul-14 05:28N 56°31' E 017°49'510.8
2018-Jul-14 05:00N 56°28' E 017°42'510.8
2018-Jul-14 04:30N 56°24' E 017°34'510.9
2018-Jul-14 04:00N 56°21' E 017°27'510.9
2018-Jul-14 03:30N 56°17' E 017°19'611.0
2018-Jul-14 02:59N 56°14' E 017°11'511.0
2018-Jul-14 02:30N 56°10' E 017°03'510.9
2018-Jul-14 02:00N 56°07' E 016°56'511.0
2018-Jul-14 01:30N 56°04' E 016°48'510.9
2018-Jul-14 01:00N 56°00' E 016°40'611.0
2018-Jul-14 00:30N 55°57' E 016°32'511.0
2018-Jul-14 00:00N 55°55' E 016°23'511.0
2018-Jul-13 23:30N 55°52' E 016°15'510.9
2018-Jul-13 23:00N 55°50' E 016°06'511.0
2018-Jul-13 22:30N 55°47' E 015°57'611.2
2018-Jul-13 22:00N 55°44' E 015°49'611.4
2018-Jul-13 21:30N 55°41' E 015°40'611.5
2018-Jul-13 21:00N 55°39' E 015°31'611.5
2018-Jul-13 20:30N 55°36' E 015°22'611.4
2018-Jul-13 20:00N 55°33' E 015°13'611.3
2018-Jul-13 19:30N 55°30' E 015°05'611.3
2018-Jul-13 19:00N 55°28' E 014°56'711.3
2018-Jul-13 18:25N 55°24' E 014°45'511.2
2018-Jul-13 18:00N 55°22' E 014°39'711.2
2018-Jul-13 17:26N 55°17' E 014°31'611.1
2018-Jul-13 16:56N 55°13' E 014°25'511.1
2018-Jul-13 16:30N 55°09' E 014°19'611.0
2018-Jul-13 15:56N 55°05' E 014°12'510.6
2018-Jul-13 15:30N 55°01' E 014°07'2511.3
2018-Jul-13 13:19N 54°51' E 013°28'1210.9
2018-Jul-13 12:12N 54°46' E 013°08'711.2
2018-Jul-13 11:34N 54°44' E 012°57'111.1
2018-Jul-13 11:28N 54°43' E 012°55'511.1
2018-Jul-13 10:59N 54°41' E 012°47'511.0
2018-Jul-13 10:30N 54°38' E 012°39'611.0
2018-Jul-13 10:00N 54°36' E 012°31'910.8
2018-Jul-13 09:08N 54°31' E 012°17'311.0
2018-Jul-13 08:51N 54°28' E 012°15'411.2
2018-Jul-13 08:30N 54°25' E 012°10'510.9
2018-Jul-13 08:00N 54°24' E 012°01'510.6
2018-Jul-13 07:30N 54°25' E 011°52'510.6
2018-Jul-13 07:00N 54°25' E 011°43'610.9
2018-Jul-13 06:30N 54°28' E 011°34'511.0
2018-Jul-13 06:00N 54°30' E 011°26'510.3
2018-Jul-13 05:30N 54°32' E 011°18'510.9
2018-Jul-13 05:00N 54°34' E 011°09'611.3
2018-Jul-13 04:30N 54°34' E 010°59'611.5
2018-Jul-13 04:00N 54°34' E 010°49'611.6
2018-Jul-13 03:27N 54°33' E 010°38'610.9
2018-Jul-13 02:56N 54°32' E 010°29'510.6
2018-Jul-13 02:26N 54°30' E 010°20'14 6.2
2018-Jul-13 00:13N 54°22' E 010°01'2 7.3
2018-Jul-12 23:57N 54°21' E 009°58'4 7.7
2018-Jul-12 23:22N 54°22' E 009°51'3 7.9
2018-Jul-12 23:00N 54°21' E 009°46'4 8.1
2018-Jul-12 22:30N 54°18' E 009°42'4 7.6
2018-Jul-12 22:00N 54°15' E 009°37'4 7.8
2018-Jul-12 21:30N 54°12' E 009°34'4 8.6
2018-Jul-12 21:00N 54°10' E 009°27'3 5.3
2018-Jul-12 20:30N 54°09' E 009°23'4 7.9
2018-Jul-12 20:00N 54°06' E 009°20'4 7.2
2018-Jul-12 19:30N 54°02' E 009°18'3 6.9
2018-Jul-12 19:00N 53°59' E 009°17'4 8.4
2018-Jul-12 18:30N 53°56' E 009°12'3 5.9
2018-Jul-12 18:00N 53°54' E 009°09'1 2.2
2018-Jul-12 17:31N 53°53' E 009°07'1 1.7
2018-Jul-12 17:00N 53°53' E 009°06'4 8.2
2018-Jul-12 16:30N 53°51' E 008°59'4 8.1
2018-Jul-12 16:00N 53°50' E 008°53'4 8.2
2018-Jul-12 15:30N 53°51' E 008°46'4 8.0
2018-Jul-12 14:59N 53°54' E 008°41'4 8.1
2018-Jul-12 14:30N 53°57' E 008°38'6 9.1
2018-Jul-12 13:52N 53°59' E 008°28'3 9.0
2018-Jul-12 13:30N 53°59' E 008°23'5 9.8
2018-Jul-12 13:00N 53°60' E 008°14'5 9.0
2018-Jul-12 12:30N 53°59' E 008°06'510.4
2018-Jul-12 12:00N 53°58' E 007°58'610.5
2018-Jul-12 11:27N 53°57' E 007°48'511.0
2018-Jul-12 11:00N 53°55' E 007°40'1711.4
2018-Jul-12 09:32N 53°52' E 007°13'411.7
2018-Jul-12 09:13N 53°51' E 007°07'311.8
2018-Jul-12 08:57N 53°50' E 007°02'611.8
2018-Jul-12 08:29N 53°49' E 006°52'1012.2
2018-Jul-12 07:38N 53°46' E 006°35'912.3
2018-Jul-12 06:52N 53°44' E 006°20'412.1
2018-Jul-12 06:30N 53°42' E 006°13'812.1
2018-Jul-12 05:52N 53°40' E 006°00'411.7
2018-Jul-12 05:30N 53°39' E 005°54'711.6
2018-Jul-12 04:54N 53°36' E 005°42'511.7
2018-Jul-12 04:30N 53°35' E 005°35'611.8
2018-Jul-12 04:00N 53°33' E 005°26'1011.9
2018-Jul-12 03:09N 53°30' E 005°09'411.7
2018-Jul-12 02:49N 53°28' E 005°03'1011.4
2018-Jul-12 01:54N 53°24' E 004°47'410.3
2018-Jul-12 01:30N 53°22' E 004°42'510.6
2018-Jul-12 01:00N 53°17' E 004°38'1510.2
2018-Jul-11 23:31N 53°04' E 004°26'8 9.7
2018-Jul-11 22:40N 52°56' E 004°20'3 9.9
2018-Jul-11 22:22N 52°54' E 004°18'4 9.7
2018-Jul-11 21:58N 52°50' E 004°15'5 9.3
2018-Jul-11 21:29N 52°46' E 004°11'4 9.6
2018-Jul-11 21:00N 52°42' E 004°07'14 9.3
2018-Jul-11 19:33N 52°31' E 003°55'4 9.3
2018-Jul-11 19:09N 52°28' E 003°52'2 9.2
2018-Jul-11 18:56N 52°26' E 003°50'5 9.0
2018-Jul-11 18:24N 52°22' E 003°46'4 8.9
2018-Jul-11 18:00N 52°19' E 003°43'5 9.3
2018-Jul-11 17:30N 52°15' E 003°38'5 9.6
2018-Jul-11 17:00N 52°12' E 003°34'510.1
2018-Jul-11 16:30N 52°08' E 003°28'510.2
2018-Jul-11 16:00N 52°03' E 003°24'510.6
2018-Jul-11 15:30N 51°58' E 003°23'510.8
2018-Jul-11 15:00N 51°53' E 003°21'611.2
2018-Jul-11 14:30N 51°48' E 003°16'4 6.7
2018-Jul-11 13:58N 51°44' E 003°15'611.9
2018-Jul-11 13:30N 51°40' E 003°20'612.1
2018-Jul-11 13:00N 51°34' E 003°25'612.4
2018-Jul-11 12:31N 51°29' E 003°30'5 9.9
2018-Jul-11 12:00N 51°26' E 003°36'4 8.9
2018-Jul-11 11:30N 51°24' E 003°42'5 9.8
2018-Jul-11 11:01N 51°21' E 003°49'4 8.5
2018-Jul-11 10:30N 51°22' E 003°55'4 9.0
2018-Jul-11 10:00N 51°26' E 003°59'4 8.1
2018-Jul-11 09:31N 51°23' E 004°03'5 8.9
2018-Jul-11 09:00N 51°23' E 004°10'4 7.2
2018-Jul-11 08:30N 51°21' E 004°15'2 3.1
2018-Jul-11 07:59N 51°21' E 004°17'0 0.0
2018-Jul-11 07:20N 51°21' E 004°17'0 0.9
2018-Jul-11 07:00N 51°21' E 004°18'3 6.3
2018-Jul-11 06:30N 51°18' E 004°20'2 4.5
2018-Jul-11 05:58N 51°16' E 004°22'0 0.0
2018-Jul-11 05:28N 51°16' E 004°22'0 0.0
2018-Jul-11 04:58N 51°16' E 004°22'0 0.0
2018-Jul-11 04:28N 51°16' E 004°22'0 0.0
2018-Jul-11 03:58N 51°16' E 004°22'0 0.0
2018-Jul-11 03:25N 51°16' E 004°22'0 0.0
2018-Jul-11 02:58N 51°16' E 004°22'0 0.0
2018-Jul-11 02:28N 51°16' E 004°22'0 0.0
2018-Jul-11 01:58N 51°16' E 004°22'0 0.0
2018-Jul-11 01:28N 51°16' E 004°22'0 0.0
2018-Jul-11 00:58N 51°16' E 004°22'0 0.0
2018-Jul-11 00:28N 51°16' E 004°22'0 0.0
2018-Jul-10 23:55N 51°16' E 004°22'0 0.0
2018-Jul-10 23:25N 51°16' E 004°22'0 0.0
2018-Jul-10 22:55N 51°16' E 004°22'0 0.0
2018-Jul-10 22:28N 51°16' E 004°22'0 0.0
2018-Jul-10 21:58N 51°16' E 004°22'0 0.0
2018-Jul-10 21:28N 51°16' E 004°22'0 0.0
2018-Jul-10 20:58N 51°16' E 004°22'0 0.0
2018-Jul-10 20:28N 51°16' E 004°22'0 0.0
2018-Jul-10 19:58N 51°16' E 004°22'0 0.0
2018-Jul-10 19:28N 51°16' E 004°22'0 0.0
2018-Jul-10 18:55N 51°16' E 004°22'0 0.0
2018-Jul-10 18:28N 51°16' E 004°22'0 0.0
2018-Jul-10 17:58N 51°16' E 004°22'0 0.0
2018-Jul-10 17:28N 51°16' E 004°22'0 0.0
2018-Jul-10 16:58N 51°16' E 004°22'0 0.0
2018-Jul-10 16:28N 51°16' E 004°22'0 0.0
2018-Jul-10 15:58N 51°16' E 004°22'0 0.0
2018-Jul-10 15:28N 51°16' E 004°22'0 0.0
2018-Jul-10 14:58N 51°16' E 004°22'0 0.0
2018-Jul-10 14:28N 51°16' E 004°22'0 0.0
2018-Jul-10 13:58N 51°16' E 004°22'0 0.0
2018-Jul-10 13:28N 51°16' E 004°22'0 0.0
2018-Jul-10 12:58N 51°16' E 004°22'0 0.0
2018-Jul-10 12:28N 51°16' E 004°22'0 0.0
2018-Jul-10 11:58N 51°16' E 004°22'0 0.0
2018-Jul-10 11:28N 51°16' E 004°22'0 0.0
2018-Jul-10 10:58N 51°16' E 004°22'0 0.0
2018-Jul-10 10:28N 51°16' E 004°22'0 0.0
2018-Jul-10 09:55N 51°16' E 004°22'0 0.0
2018-Jul-10 09:28N 51°16' E 004°22'0 0.0
2018-Jul-10 08:55N 51°16' E 004°22'0 0.0
2018-Jul-10 08:25N 51°16' E 004°22'0 0.0
2018-Jul-10 07:58N 51°16' E 004°22'0 0.0
2018-Jul-10 07:28N 51°16' E 004°22'0 0.0
2018-Jul-10 06:58N 51°16' E 004°22'0 0.0
2018-Jul-10 06:28N 51°16' E 004°22'0 0.0
2018-Jul-10 05:55N 51°16' E 004°22'0 0.0
2018-Jul-10 05:25N 51°16' E 004°22'0 0.0
2018-Jul-10 04:58N 51°16' E 004°22'0 0.0
2018-Jul-10 04:28N 51°16' E 004°22'0 0.0
2018-Jul-10 03:58N 51°16' E 004°22'0 0.0
2018-Jul-10 03:28N 51°16' E 004°22'0 0.0
2018-Jul-10 02:58N 51°16' E 004°22'0 0.0
2018-Jul-10 02:28N 51°16' E 004°22'0 0.0
2018-Jul-10 01:58N 51°16' E 004°22'0 0.0
2018-Jul-10 01:28N 51°16' E 004°22'0 0.0
2018-Jul-10 00:58N 51°16' E 004°22'0 0.0
2018-Jul-10 00:28N 51°16' E 004°22'0 0.0
2018-Jul-09 23:58N 51°16' E 004°22'0 0.0
2018-Jul-09 23:28N 51°16' E 004°22'0 0.0
2018-Jul-09 22:58N 51°16' E 004°22'0 0.0
2018-Jul-09 22:28N 51°16' E 004°22'0 0.0
2018-Jul-09 21:58N 51°16' E 004°22'0 0.0
2018-Jul-09 21:28N 51°16' E 004°22'0 0.0
2018-Jul-09 20:58N 51°16' E 004°22'0 0.0
2018-Jul-09 20:28N 51°16' E 004°22'0 0.0
2018-Jul-09 19:58N 51°16' E 004°22'0 0.0
2018-Jul-09 19:25N 51°16' E 004°22'0 0.0
2018-Jul-09 18:58N 51°16' E 004°22'0 0.0
2018-Jul-09 18:28N 51°16' E 004°22'0 0.0
2018-Jul-09 17:58N 51°16' E 004°22'0 0.0
2018-Jul-09 17:28N 51°16' E 004°22'0 0.0
2018-Jul-09 16:55N 51°16' E 004°22'0 0.0
2018-Jul-09 16:28N 51°16' E 004°22'0 0.0
2018-Jul-09 15:58N 51°16' E 004°22'1 2.2
2018-Jul-09 15:30N 51°17' E 004°21'0 0.9
2018-Jul-09 15:00N 51°17' E 004°20'0 0.7
2018-Jul-09 14:31N 51°17' E 004°20'3 5.7
2018-Jul-09 14:00N 51°19' E 004°16'4 8.2
2018-Jul-09 13:30N 51°22' E 004°13'4 7.8
2018-Jul-09 13:00N 51°22' E 004°07'5 9.0
2018-Jul-09 12:30N 51°25' E 004°02'4 7.7
2018-Jul-09 12:00N 51°23' E 003°57'511.0
2018-Jul-09 11:31N 51°21' E 003°49'611.2
2018-Jul-09 11:00N 51°25' E 003°42'3 5.6
2018-Jul-09 10:28N 51°28' E 003°42'0 0.0
2018-Jul-09 09:58N 51°28' E 003°42'0 0.0
2018-Jul-09 09:25N 51°28' E 003°42'0 0.0
2018-Jul-09 08:58N 51°28' E 003°42'0 0.0
2018-Jul-09 08:28N 51°28' E 003°42'0 0.0
2018-Jul-09 07:55N 51°28' E 003°42'0 0.0
2018-Jul-09 07:28N 51°28' E 003°41'0 0.0
2018-Jul-09 06:58N 51°28' E 003°42'0 0.0
2018-Jul-09 06:28N 51°28' E 003°42'0 0.0
2018-Jul-09 05:52N 51°28' E 003°42'0 0.0
2018-Jul-09 05:28N 51°28' E 003°42'0 0.0
2018-Jul-09 04:58N 51°28' E 003°41'0 0.0
2018-Jul-09 04:28N 51°28' E 003°42'0 0.0
2018-Jul-09 03:52N 51°28' E 003°42'0 0.0
2018-Jul-09 03:25N 51°28' E 003°42'0 0.0
2018-Jul-09 02:58N 51°28' E 003°42'0 0.0
2018-Jul-09 02:25N 51°28' E 003°41'0 0.0
2018-Jul-09 01:58N 51°28' E 003°42'0 0.0
2018-Jul-09 01:28N 51°28' E 003°42'0 0.0
2018-Jul-09 00:58N 51°28' E 003°42'0 0.0
2018-Jul-09 00:28N 51°28' E 003°42'0 0.0
2018-Jul-08 23:55N 51°28' E 003°42'0 0.0
2018-Jul-08 23:28N 51°28' E 003°42'0 0.0
2018-Jul-08 22:58N 51°28' E 003°42'0 0.0
2018-Jul-08 22:28N 51°28' E 003°42'0 0.0
2018-Jul-08 21:49N 51°28' E 003°42'0 0.0
2018-Jul-08 21:22N 51°28' E 003°42'0 0.0
2018-Jul-08 20:58N 51°28' E 003°42'0 0.0
2018-Jul-08 20:22N 51°28' E 003°42'0 0.0
2018-Jul-08 19:52N 51°28' E 003°42'0 0.0
2018-Jul-08 19:28N 51°28' E 003°42'0 0.0
2018-Jul-08 18:58N 51°28' E 003°42'0 0.0
2018-Jul-08 18:28N 51°28' E 003°42'0 0.0
2018-Jul-08 17:58N 51°28' E 003°42'0 0.0
2018-Jul-08 17:28N 51°28' E 003°42'0 0.0
2018-Jul-08 16:58N 51°28' E 003°42'0 0.0
2018-Jul-08 16:28N 51°28' E 003°42'0 0.0
2018-Jul-08 15:58N 51°28' E 003°42'0 0.0
2018-Jul-08 15:28N 51°28' E 003°42'0 0.0
2018-Jul-08 14:55N 51°28' E 003°42'0 0.0
2018-Jul-08 14:28N 51°28' E 003°42'0 0.0
2018-Jul-08 13:58N 51°28' E 003°42'0 0.0
2018-Jul-08 13:28N 51°28' E 003°42'0 0.0
2018-Jul-08 12:58N 51°28' E 003°42'0 0.0
2018-Jul-08 12:28N 51°28' E 003°42'0 0.0
2018-Jul-08 11:58N 51°28' E 003°41'0 0.0
2018-Jul-08 11:28N 51°28' E 003°42'0 0.0
2018-Jul-08 10:58N 51°28' E 003°42'0 0.0
2018-Jul-08 10:25N 51°28' E 003°41'0 0.0
2018-Jul-08 09:58N 51°28' E 003°42'0 0.0
2018-Jul-08 09:28N 51°28' E 003°41'0 0.0
2018-Jul-08 08:58N 51°28' E 003°42'0 0.0
2018-Jul-08 08:28N 51°28' E 003°42'0 0.0
2018-Jul-08 07:58N 51°28' E 003°42'0 0.0
2018-Jul-08 07:28N 51°28' E 003°42'0 0.0
2018-Jul-08 06:58N 51°28' E 003°42'0 0.0
2018-Jul-08 06:28N 51°28' E 003°42'0 0.0
2018-Jul-08 05:40N 51°28' E 003°41'0 0.0
2018-Jul-08 05:28N 51°28' E 003°42'0 0.0
2018-Jul-08 04:58N 51°28' E 003°42'0 0.0
2018-Jul-08 04:28N 51°28' E 003°42'0 0.0
2018-Jul-08 03:58N 51°28' E 003°42'0 0.0
2018-Jul-08 03:28N 51°28' E 003°42'0 0.0
2018-Jul-08 02:58N 51°28' E 003°41'0 0.0
2018-Jul-08 02:25N 51°28' E 003°41'0 0.0
2018-Jul-08 01:58N 51°28' E 003°41'0 0.0
2018-Jul-08 01:28N 51°28' E 003°41'0 0.0
2018-Jul-08 00:58N 51°28' E 003°42'0 0.0
2018-Jul-08 00:25N 51°28' E 003°41'0 0.0
2018-Jul-07 23:55N 51°28' E 003°42'0 0.0
2018-Jul-07 23:28N 51°28' E 003°42'0 0.0
2018-Jul-07 22:55N 51°28' E 003°41'0 0.0
2018-Jul-07 22:25N 51°28' E 003°42'0 0.0
2018-Jul-07 21:58N 51°28' E 003°42'0 0.0
2018-Jul-07 21:22N 51°28' E 003°42'0 0.0
2018-Jul-07 20:55N 51°28' E 003°42'0 0.0
2018-Jul-07 20:28N 51°28' E 003°42'0 0.0
2018-Jul-07 19:58N 51°28' E 003°42'0 0.0
2018-Jul-07 19:28N 51°28' E 003°42'0 0.0
2018-Jul-07 18:55N 51°28' E 003°42'0 0.0
2018-Jul-07 18:19N 51°28' E 003°42'0 0.0
2018-Jul-07 17:55N 51°28' E 003°42'0 0.0
2018-Jul-07 17:28N 51°28' E 003°42'0 0.0
2018-Jul-07 16:58N 51°28' E 003°42'0 0.0
2018-Jul-07 16:28N 51°28' E 003°42'0 0.0
2018-Jul-07 15:58N 51°28' E 003°42'0 0.0
2018-Jul-07 15:28N 51°28' E 003°42'0 0.0
2018-Jul-07 14:58N 51°28' E 003°41'0 0.0
2018-Jul-07 14:28N 51°28' E 003°42'0 0.0
2018-Jul-07 13:55N 51°28' E 003°42'0 0.0
2018-Jul-07 13:28N 51°28' E 003°41'0 0.0
2018-Jul-07 12:58N 51°28' E 003°41'0 0.0
2018-Jul-07 12:25N 51°28' E 003°42'0 0.0
2018-Jul-07 11:58N 51°28' E 003°42'0 0.0
2018-Jul-07 11:28N 51°28' E 003°42'0 0.0
2018-Jul-07 10:58N 51°28' E 003°42'0 0.0
2018-Jul-07 10:28N 51°28' E 003°42'0 0.0
2018-Jul-07 09:58N 51°28' E 003°41'0 0.0
2018-Jul-07 09:28N 51°28' E 003°42'0 0.0
2018-Jul-07 08:58N 51°28' E 003°42'0 0.0
2018-Jul-07 08:28N 51°28' E 003°42'0 0.0
2018-Jul-07 07:52N 51°28' E 003°42'0 0.0
2018-Jul-07 07:25N 51°28' E 003°42'0 0.0
2018-Jul-07 06:55N 51°28' E 003°42'0 0.0
2018-Jul-07 06:22N 51°28' E 003°42'0 0.0
2018-Jul-07 05:58N 51°28' E 003°42'0 0.0
2018-Jul-07 05:28N 51°28' E 003°42'0 0.0
2018-Jul-07 04:58N 51°28' E 003°42'0 0.0
2018-Jul-07 04:28N 51°28' E 003°42'0 0.0
2018-Jul-07 03:58N 51°28' E 003°41'0 0.0
2018-Jul-07 03:28N 51°28' E 003°42'0 0.0
2018-Jul-07 02:58N 51°28' E 003°41'0 0.0
2018-Jul-07 02:28N 51°28' E 003°42'0 0.0
2018-Jul-07 01:58N 51°28' E 003°42'0 0.0
2018-Jul-07 01:25N 51°28' E 003°42'0 0.0
2018-Jul-07 00:55N 51°28' E 003°42'0 0.0
2018-Jul-07 00:28N 51°28' E 003°41'0 0.0
2018-Jul-06 23:58N 51°28' E 003°41'0 0.0
2018-Jul-06 23:22N 51°28' E 003°42'0 0.0
2018-Jul-06 22:55N 51°28' E 003°41'0 0.0
2018-Jul-06 22:25N 51°28' E 003°42'0 0.0
2018-Jul-06 21:58N 51°28' E 003°42'0 0.0
2018-Jul-06 21:22N 51°28' E 003°41'0 0.0
2018-Jul-06 20:58N 51°28' E 003°41'0 0.0
2018-Jul-06 20:22N 51°28' E 003°42'0 0.0
2018-Jul-06 19:58N 51°28' E 003°42'0 0.0
2018-Jul-06 19:28N 51°28' E 003°42'0 0.0
2018-Jul-06 18:52N 51°28' E 003°42'0 0.0
2018-Jul-06 18:28N 51°28' E 003°42'0 0.0
2018-Jul-06 17:58N 51°28' E 003°42'0 0.0
2018-Jul-06 17:25N 51°28' E 003°42'0 0.0
2018-Jul-06 16:55N 51°28' E 003°42'0 0.0
2018-Jul-06 16:28N 51°28' E 003°42'0 0.0
2018-Jul-06 15:58N 51°28' E 003°42'0 0.0
2018-Jul-06 15:28N 51°28' E 003°42'0 0.0
2018-Jul-06 14:58N 51°28' E 003°42'0 0.0
2018-Jul-06 14:19N 51°28' E 003°42'0 0.0
2018-Jul-06 13:55N 51°28' E 003°42'0 0.0
2018-Jul-06 13:19N 51°28' E 003°41'0 0.0
2018-Jul-06 12:58N 51°28' E 003°41'0 0.0
2018-Jul-06 12:28N 51°28' E 003°41'0 0.0
2018-Jul-06 11:58N 51°28' E 003°42'0 0.0
2018-Jul-06 11:28N 51°28' E 003°42'0 0.0
2018-Jul-06 10:58N 51°28' E 003°42'0 0.0
2018-Jul-06 10:25N 51°28' E 003°42'0 0.0
2018-Jul-06 09:58N 51°28' E 003°41'0 0.0
2018-Jul-06 09:28N 51°28' E 003°42'0 0.0
2018-Jul-06 08:58N 51°28' E 003°42'0 0.0
2018-Jul-06 08:22N 51°28' E 003°42'0 0.0
2018-Jul-06 07:55N 51°28' E 003°42'0 0.0
2018-Jul-06 07:28N 51°28' E 003°42'0 0.0
2018-Jul-06 06:58N 51°28' E 003°42'0 0.0
2018-Jul-06 06:30N 51°28' E 003°42'0 0.0
2018-Jul-06 06:00N 51°28' E 003°42'  
Track history (hours):
 
Tides and Currents Weather Stations Pressure Air Temp Water Temp Dewpoint Dewpoint Depression Visibility Wind Speed Wind Dir Waves Ship Positions

Imke

Last reported at 2018-Jul-16 05:51 UTC. Time now 2018-Jul-16 06:25 UTC.
Position N 60°32' E 027°11'.

Length 112 m; draft 5.9 m.

Type: Cargo ship. MMSI: 246535000.

Date/timePositionNaut miles runAvg speedWind from/ knotsBaromVisibWave heightAir tempDewpointWater temp
2018-Jul-16 05:51N 60°32' E 027°11'0 0.0
2018-Jul-16 04:28N 60°32' E 027°11'0 0.0
2018-Jul-16 04:00N 60°32' E 027°11'0 0.0
2018-Jul-16 03:26N 60°32' E 027°11'0 0.0
2018-Jul-16 02:56N 60°32' E 027°11'0 0.0
2018-Jul-16 02:30N 60°32' E 027°11'0 0.0
2018-Jul-16 02:00N 60°32' E 027°11'0 0.0
2018-Jul-16 01:30N 60°32' E 027°11'0 0.0
2018-Jul-16 01:00N 60°32' E 027°11'0 0.0
2018-Jul-16 00:30N 60°32' E 027°11'0 0.0
2018-Jul-15 23:57N 60°32' E 027°11'0 0.0
2018-Jul-15 23:30N 60°32' E 027°11'0 0.0
2018-Jul-15 23:00N 60°32' E 027°11'0 0.0
2018-Jul-15 22:28N 60°32' E 027°11'0 0.0
2018-Jul-15 21:59N 60°32' E 027°11'0 0.1
2018-Jul-15 18:03N 60°32' E 027°11'1 4.3
2018-Jul-15 17:52N 60°31' E 027°10'3 9.6
2018-Jul-15 17:30N 60°28' E 027°09'611.1
2018-Jul-15 17:00N 60°22' E 027°06'510.8
2018-Jul-15 16:30N 60°22' E 026°55'611.4
2018-Jul-15 16:00N 60°22' E 026°43'611.5
2018-Jul-15 15:30N 60°19' E 026°34'611.1
2018-Jul-15 15:00N 60°15' E 026°26'5 9.7
2018-Jul-15 14:30N 60°11' E 026°22'510.3
2018-Jul-15 14:00N 60°06' E 026°16'810.4
2018-Jul-15 13:12N 60°00' E 026°04'1210.1
2018-Jul-15 12:03N 59°53' E 025°47'110.3
2018-Jul-15 11:55N 59°53' E 025°44'510.5
2018-Jul-15 11:27N 59°51' E 025°35'810.6
2018-Jul-15 10:40N 59°49' E 025°19'410.6
2018-Jul-15 10:18N 59°49' E 025°11'310.5
2018-Jul-15 10:00N 59°48' E 025°05'610.6
2018-Jul-15 09:24N 59°46' E 024°53'410.7
2018-Jul-15 09:00N 59°45' E 024°45'511.0
2018-Jul-15 08:30N 59°44' E 024°34'510.5
2018-Jul-15 08:00N 59°43' E 024°24'1310.6
2018-Jul-15 06:47N 59°39' E 023°60'310.5
2018-Jul-15 06:28N 59°38' E 023°54'510.5
2018-Jul-15 06:00N 59°36' E 023°44'510.9
2018-Jul-15 05:30N 59°34' E 023°34'611.1
2018-Jul-15 05:00N 59°33' E 023°24'611.1
2018-Jul-15 04:30N 59°31' E 023°13'611.1
2018-Jul-15 04:00N 59°29' E 023°03'611.1
2018-Jul-15 03:30N 59°27' E 022°53'510.9
2018-Jul-15 03:00N 59°26' E 022°43'1211.1
2018-Jul-15 01:57N 59°19' E 022°23'611.1
2018-Jul-15 01:22N 59°15' E 022°13'411.0
2018-Jul-15 01:00N 59°13' E 022°07'611.0
2018-Jul-15 00:30N 59°09' E 021°59'510.9
2018-Jul-15 00:00N 59°06' E 021°50'510.6
2018-Jul-14 23:30N 59°03' E 021°42'510.7
2018-Jul-14 23:00N 58°58' E 021°36'610.6
2018-Jul-14 22:29N 58°54' E 021°30'810.9
2018-Jul-14 21:45N 58°48' E 021°21'16610.9
2018-Jul-14 06:32N 56°38' E 018°05'111.0
2018-Jul-14 06:30N 56°38' E 018°05'1110.8
2018-Jul-14 05:28N 56°31' E 017°49'510.8
2018-Jul-14 05:00N 56°28' E 017°42'510.8
2018-Jul-14 04:30N 56°24' E 017°34'510.9
2018-Jul-14 04:00N 56°21' E 017°27'510.9
2018-Jul-14 03:30N 56°17' E 017°19'611.0
2018-Jul-14 02:59N 56°14' E 017°11'511.0
2018-Jul-14 02:30N 56°10' E 017°03'510.9
2018-Jul-14 02:00N 56°07' E 016°56'511.0
2018-Jul-14 01:30N 56°04' E 016°48'510.9
2018-Jul-14 01:00N 56°00' E 016°40'611.0
2018-Jul-14 00:30N 55°57' E 016°32'511.0
2018-Jul-14 00:00N 55°55' E 016°23'511.0
2018-Jul-13 23:30N 55°52' E 016°15'510.9
2018-Jul-13 23:00N 55°50' E 016°06'511.0
2018-Jul-13 22:30N 55°47' E 015°57'611.2
2018-Jul-13 22:00N 55°44' E 015°49'611.4
2018-Jul-13 21:30N 55°41' E 015°40'611.5
2018-Jul-13 21:00N 55°39' E 015°31'611.5
2018-Jul-13 20:30N 55°36' E 015°22'611.4
2018-Jul-13 20:00N 55°33' E 015°13'611.3
2018-Jul-13 19:30N 55°30' E 015°05'611.3
2018-Jul-13 19:00N 55°28' E 014°56'711.3
2018-Jul-13 18:25N 55°24' E 014°45'511.2
2018-Jul-13 18:00N 55°22' E 014°39'711.2
2018-Jul-13 17:26N 55°17' E 014°31'611.1
2018-Jul-13 16:56N 55°13' E 014°25'511.1
2018-Jul-13 16:30N 55°09' E 014°19'611.0
2018-Jul-13 15:56N 55°05' E 014°12'510.6
2018-Jul-13 15:30N 55°01' E 014°07'2511.3
2018-Jul-13 13:19N 54°51' E 013°28'1210.9
2018-Jul-13 12:12N 54°46' E 013°08'711.2
2018-Jul-13 11:34N 54°44' E 012°57'111.1
2018-Jul-13 11:28N 54°43' E 012°55'511.1
2018-Jul-13 10:59N 54°41' E 012°47'511.0
2018-Jul-13 10:30N 54°38' E 012°39'611.0
2018-Jul-13 10:00N 54°36' E 012°31'910.8
2018-Jul-13 09:08N 54°31' E 012°17'311.0
2018-Jul-13 08:51N 54°28' E 012°15'411.2
2018-Jul-13 08:30N 54°25' E 012°10'510.9
2018-Jul-13 08:00N 54°24' E 012°01'510.6
2018-Jul-13 07:30N 54°25' E 011°52'510.6
2018-Jul-13 07:00N 54°25' E 011°43'610.9
2018-Jul-13 06:30N 54°28' E 011°34'511.0
2018-Jul-13 06:00N 54°30' E 011°26'510.3
2018-Jul-13 05:30N 54°32' E 011°18'510.9
2018-Jul-13 05:00N 54°34' E 011°09'611.3
2018-Jul-13 04:30N 54°34' E 010°59'611.5
2018-Jul-13 04:00N 54°34' E 010°49'611.6
2018-Jul-13 03:27N 54°33' E 010°38'610.9
2018-Jul-13 02:56N 54°32' E 010°29'510.6
2018-Jul-13 02:26N 54°30' E 010°20'14 6.2
2018-Jul-13 00:13N 54°22' E 010°01'2 7.3
2018-Jul-12 23:57N 54°21' E 009°58'4 7.7
2018-Jul-12 23:22N 54°22' E 009°51'3 7.9
2018-Jul-12 23:00N 54°21' E 009°46'4 8.1
2018-Jul-12 22:30N 54°18' E 009°42'4 7.6
2018-Jul-12 22:00N 54°15' E 009°37'4 7.8
2018-Jul-12 21:30N 54°12' E 009°34'4 8.6
2018-Jul-12 21:00N 54°10' E 009°27'3 5.3
2018-Jul-12 20:30N 54°09' E 009°23'4 7.9
2018-Jul-12 20:00N 54°06' E 009°20'4 7.2
2018-Jul-12 19:30N 54°02' E 009°18'3 6.9
2018-Jul-12 19:00N 53°59' E 009°17'4 8.4
2018-Jul-12 18:30N 53°56' E 009°12'3 5.9
2018-Jul-12 18:00N 53°54' E 009°09'1 2.2
2018-Jul-12 17:31N 53°53' E 009°07'1 1.7
2018-Jul-12 17:00N 53°53' E 009°06'4 8.2
2018-Jul-12 16:30N 53°51' E 008°59'4 8.1
2018-Jul-12 16:00N 53°50' E 008°53'4 8.2
2018-Jul-12 15:30N 53°51' E 008°46'4 8.0
2018-Jul-12 14:59N 53°54' E 008°41'4 8.1
2018-Jul-12 14:30N 53°57' E 008°38'6 9.1
2018-Jul-12 13:52N 53°59' E 008°28'3 9.0
2018-Jul-12 13:30N 53°59' E 008°23'5 9.8
2018-Jul-12 13:00N 53°60' E 008°14'5 9.0
2018-Jul-12 12:30N 53°59' E 008°06'510.4
2018-Jul-12 12:00N 53°58' E 007°58'610.5
2018-Jul-12 11:27N 53°57' E 007°48'511.0
2018-Jul-12 11:00N 53°55' E 007°40'1711.4
2018-Jul-12 09:32N 53°52' E 007°13'411.7
2018-Jul-12 09:13N 53°51' E 007°07'311.8
2018-Jul-12 08:57N 53°50' E 007°02'611.8
2018-Jul-12 08:29N 53°49' E 006°52'1012.2
2018-Jul-12 07:38N 53°46' E 006°35'912.3
2018-Jul-12 06:52N 53°44' E 006°20'412.1
2018-Jul-12 06:30N 53°42' E 006°13'812.1
2018-Jul-12 05:52N 53°40' E 006°00'411.7
2018-Jul-12 05:30N 53°39' E 005°54'711.6
2018-Jul-12 04:54N 53°36' E 005°42'511.7
2018-Jul-12 04:30N 53°35' E 005°35'611.8
2018-Jul-12 04:00N 53°33' E 005°26'1011.9
2018-Jul-12 03:09N 53°30' E 005°09'411.7
2018-Jul-12 02:49N 53°28' E 005°03'1011.4
2018-Jul-12 01:54N 53°24' E 004°47'410.3
2018-Jul-12 01:30N 53°22' E 004°42'510.6
2018-Jul-12 01:00N 53°17' E 004°38'1510.2
2018-Jul-11 23:31N 53°04' E 004°26'8 9.7
2018-Jul-11 22:40N 52°56' E 004°20'3 9.9
2018-Jul-11 22:22N 52°54' E 004°18'4 9.7
2018-Jul-11 21:58N 52°50' E 004°15'5 9.3
2018-Jul-11 21:29N 52°46' E 004°11'4 9.6
2018-Jul-11 21:00N 52°42' E 004°07'14 9.3
2018-Jul-11 19:33N 52°31' E 003°55'4 9.3
2018-Jul-11 19:09N 52°28' E 003°52'2 9.2
2018-Jul-11 18:56N 52°26' E 003°50'5 9.0
2018-Jul-11 18:24N 52°22' E 003°46'4 8.9
2018-Jul-11 18:00N 52°19' E 003°43'5 9.3
2018-Jul-11 17:30N 52°15' E 003°38'5 9.6
2018-Jul-11 17:00N 52°12' E 003°34'510.1
2018-Jul-11 16:30N 52°08' E 003°28'510.2
2018-Jul-11 16:00N 52°03' E 003°24'510.6
2018-Jul-11 15:30N 51°58' E 003°23'510.8
2018-Jul-11 15:00N 51°53' E 003°21'611.2
2018-Jul-11 14:30N 51°48' E 003°16'4 6.7
2018-Jul-11 13:58N 51°44' E 003°15'611.9
2018-Jul-11 13:30N 51°40' E 003°20'612.1
2018-Jul-11 13:00N 51°34' E 003°25'612.4
2018-Jul-11 12:31N 51°29' E 003°30'5 9.9
2018-Jul-11 12:00N 51°26' E 003°36'4 8.9
2018-Jul-11 11:30N 51°24' E 003°42'5 9.8
2018-Jul-11 11:01N 51°21' E 003°49'4 8.5
2018-Jul-11 10:30N 51°22' E 003°55'4 9.0
2018-Jul-11 10:00N 51°26' E 003°59'4 8.1
2018-Jul-11 09:31N 51°23' E 004°03'5 8.9
2018-Jul-11 09:00N 51°23' E 004°10'4 7.2
2018-Jul-11 08:30N 51°21' E 004°15'2 3.1
2018-Jul-11 07:59N 51°21' E 004°17'0 0.0
2018-Jul-11 07:20N 51°21' E 004°17'0 0.9
2018-Jul-11 07:00N 51°21' E 004°18'3 6.3
2018-Jul-11 06:30N 51°18' E 004°20'2 4.5
2018-Jul-11 05:58N 51°16' E 004°22'0 0.0
2018-Jul-11 05:28N 51°16' E 004°22'0 0.0
2018-Jul-11 04:58N 51°16' E 004°22'0 0.0
2018-Jul-11 04:28N 51°16' E 004°22'0 0.0
2018-Jul-11 03:58N 51°16' E 004°22'0 0.0
2018-Jul-11 03:25N 51°16' E 004°22'0 0.0
2018-Jul-11 02:58N 51°16' E 004°22'0 0.0
2018-Jul-11 02:28N 51°16' E 004°22'0 0.0
2018-Jul-11 01:58N 51°16' E 004°22'0 0.0
2018-Jul-11 01:28N 51°16' E 004°22'0 0.0
2018-Jul-11 00:58N 51°16' E 004°22'0 0.0
2018-Jul-11 00:28N 51°16' E 004°22'0 0.0
2018-Jul-10 23:55N 51°16' E 004°22'0 0.0
2018-Jul-10 23:25N 51°16' E 004°22'0 0.0
2018-Jul-10 22:55N 51°16' E 004°22'0 0.0
2018-Jul-10 22:28N 51°16' E 004°22'0 0.0
2018-Jul-10 21:58N 51°16' E 004°22'0 0.0
2018-Jul-10 21:28N 51°16' E 004°22'0 0.0
2018-Jul-10 20:58N 51°16' E 004°22'0 0.0
2018-Jul-10 20:28N 51°16' E 004°22'0 0.0
2018-Jul-10 19:58N 51°16' E 004°22'0 0.0
2018-Jul-10 19:28N 51°16' E 004°22'0 0.0
2018-Jul-10 18:55N 51°16' E 004°22'0 0.0
2018-Jul-10 18:28N 51°16' E 004°22'0 0.0
2018-Jul-10 17:58N 51°16' E 004°22'0 0.0
2018-Jul-10 17:28N 51°16' E 004°22'0 0.0
2018-Jul-10 16:58N 51°16' E 004°22'0 0.0
2018-Jul-10 16:28N 51°16' E 004°22'0 0.0
2018-Jul-10 15:58N 51°16' E 004°22'0 0.0
2018-Jul-10 15:28N 51°16' E 004°22'0 0.0
2018-Jul-10 14:58N 51°16' E 004°22'0 0.0
2018-Jul-10 14:28N 51°16' E 004°22'0 0.0
2018-Jul-10 13:58N 51°16' E 004°22'0 0.0
2018-Jul-10 13:28N 51°16' E 004°22'0 0.0
2018-Jul-10 12:58N 51°16' E 004°22'0 0.0
2018-Jul-10 12:28N 51°16' E 004°22'0 0.0
2018-Jul-10 11:58N 51°16' E 004°22'0 0.0
2018-Jul-10 11:28N 51°16' E 004°22'0 0.0
2018-Jul-10 10:58N 51°16' E 004°22'0 0.0
2018-Jul-10 10:28N 51°16' E 004°22'0 0.0
2018-Jul-10 09:55N 51°16' E 004°22'0 0.0
2018-Jul-10 09:28N 51°16' E 004°22'0 0.0
2018-Jul-10 08:55N 51°16' E 004°22'0 0.0
2018-Jul-10 08:25N 51°16' E 004°22'0 0.0
2018-Jul-10 07:58N 51°16' E 004°22'0 0.0
2018-Jul-10 07:28N 51°16' E 004°22'0 0.0
2018-Jul-10 06:58N 51°16' E 004°22'0 0.0
2018-Jul-10 06:28N 51°16' E 004°22'0 0.0
2018-Jul-10 05:55N 51°16' E 004°22'0 0.0
2018-Jul-10 05:25N 51°16' E 004°22'0 0.0
2018-Jul-10 04:58N 51°16' E 004°22'0 0.0
2018-Jul-10 04:28N 51°16' E 004°22'0 0.0
2018-Jul-10 03:58N 51°16' E 004°22'0 0.0
2018-Jul-10 03:28N 51°16' E 004°22'0 0.0
2018-Jul-10 02:58N 51°16' E 004°22'0 0.0
2018-Jul-10 02:28N 51°16' E 004°22'0 0.0
2018-Jul-10 01:58N 51°16' E 004°22'0 0.0
2018-Jul-10 01:28N 51°16' E 004°22'0 0.0
2018-Jul-10 00:58N 51°16' E 004°22'0 0.0
2018-Jul-10 00:28N 51°16' E 004°22'0 0.0
2018-Jul-09 23:58N 51°16' E 004°22'0 0.0
2018-Jul-09 23:28N 51°16' E 004°22'0 0.0
2018-Jul-09 22:58N 51°16' E 004°22'0 0.0
2018-Jul-09 22:28N 51°16' E 004°22'0 0.0
2018-Jul-09 21:58N 51°16' E 004°22'0 0.0
2018-Jul-09 21:28N 51°16' E 004°22'0 0.0
2018-Jul-09 20:58N 51°16' E 004°22'0 0.0
2018-Jul-09 20:28N 51°16' E 004°22'0 0.0
2018-Jul-09 19:58N 51°16' E 004°22'0 0.0
2018-Jul-09 19:25N 51°16' E 004°22'0 0.0
2018-Jul-09 18:58N 51°16' E 004°22'0 0.0
2018-Jul-09 18:28N 51°16' E 004°22'0 0.0
2018-Jul-09 17:58N 51°16' E 004°22'0 0.0
2018-Jul-09 17:28N 51°16' E 004°22'0 0.0
2018-Jul-09 16:55N 51°16' E 004°22'0 0.0
2018-Jul-09 16:28N 51°16' E 004°22'0 0.0
2018-Jul-09 15:58N 51°16' E 004°22'1 2.2
2018-Jul-09 15:30N 51°17' E 004°21'0 0.9
2018-Jul-09 15:00N 51°17' E 004°20'0 0.7
2018-Jul-09 14:31N 51°17' E 004°20'3 5.7
2018-Jul-09 14:00N 51°19' E 004°16'4 8.2
2018-Jul-09 13:30N 51°22' E 004°13'4 7.8
2018-Jul-09 13:00N 51°22' E 004°07'5 9.0
2018-Jul-09 12:30N 51°25' E 004°02'4 7.7
2018-Jul-09 12:00N 51°23' E 003°57'511.0
2018-Jul-09 11:31N 51°21' E 003°49'611.2
2018-Jul-09 11:00N 51°25' E 003°42'3 5.6
2018-Jul-09 10:28N 51°28' E 003°42'0 0.0
2018-Jul-09 09:58N 51°28' E 003°42'0 0.0
2018-Jul-09 09:25N 51°28' E 003°42'0 0.0
2018-Jul-09 08:58N 51°28' E 003°42'0 0.0
2018-Jul-09 08:28N 51°28' E 003°42'0 0.0
2018-Jul-09 07:55N 51°28' E 003°42'0 0.0
2018-Jul-09 07:28N 51°28' E 003°41'0 0.0
2018-Jul-09 06:58N 51°28' E 003°42'0 0.0
2018-Jul-09 06:28N 51°28' E 003°42'0 0.0
2018-Jul-09 05:52N 51°28' E 003°42'0 0.0
2018-Jul-09 05:28N 51°28' E 003°42'0 0.0
2018-Jul-09 04:58N 51°28' E 003°41'0 0.0
2018-Jul-09 04:28N 51°28' E 003°42'0 0.0
2018-Jul-09 03:52N 51°28' E 003°42'0 0.0
2018-Jul-09 03:25N 51°28' E 003°42'0 0.0
2018-Jul-09 02:58N 51°28' E 003°42'0 0.0
2018-Jul-09 02:25N 51°28' E 003°41'0 0.0
2018-Jul-09 01:58N 51°28' E 003°42'0 0.0
2018-Jul-09 01:28N 51°28' E 003°42'0 0.0
2018-Jul-09 00:58N 51°28' E 003°42'0 0.0
2018-Jul-09 00:28N 51°28' E 003°42'0 0.0
2018-Jul-08 23:55N 51°28' E 003°42'0 0.0
2018-Jul-08 23:28N 51°28' E 003°42'0 0.0
2018-Jul-08 22:58N 51°28' E 003°42'0 0.0
2018-Jul-08 22:28N 51°28' E 003°42'0 0.0
2018-Jul-08 21:49N 51°28' E 003°42'0 0.0
2018-Jul-08 21:22N 51°28' E 003°42'0 0.0
2018-Jul-08 20:58N 51°28' E 003°42'0 0.0
2018-Jul-08 20:22N 51°28' E 003°42'0 0.0
2018-Jul-08 19:52N 51°28' E 003°42'0 0.0
2018-Jul-08 19:28N 51°28' E 003°42'0 0.0
2018-Jul-08 18:58N 51°28' E 003°42'0 0.0
2018-Jul-08 18:28N 51°28' E 003°42'0 0.0
2018-Jul-08 17:58N 51°28' E 003°42'0 0.0
2018-Jul-08 17:28N 51°28' E 003°42'0 0.0
2018-Jul-08 16:58N 51°28' E 003°42'0 0.0
2018-Jul-08 16:28N 51°28' E 003°42'0 0.0
2018-Jul-08 15:58N 51°28' E 003°42'0 0.0
2018-Jul-08 15:28N 51°28' E 003°42'0 0.0
2018-Jul-08 14:55N 51°28' E 003°42'0 0.0
2018-Jul-08 14:28N 51°28' E 003°42'0 0.0
2018-Jul-08 13:58N 51°28' E 003°42'0 0.0
2018-Jul-08 13:28N 51°28' E 003°42'0 0.0
2018-Jul-08 12:58N 51°28' E 003°42'0 0.0
2018-Jul-08 12:28N 51°28' E 003°42'0 0.0
2018-Jul-08 11:58N 51°28' E 003°41'0 0.0
2018-Jul-08 11:28N 51°28' E 003°42'0 0.0
2018-Jul-08 10:58N 51°28' E 003°42'0 0.0
2018-Jul-08 10:25N 51°28' E 003°41'0 0.0
2018-Jul-08 09:58N 51°28' E 003°42'0 0.0
2018-Jul-08 09:28N 51°28' E 003°41'0 0.0
2018-Jul-08 08:58N 51°28' E 003°42'0 0.0
2018-Jul-08 08:28N 51°28' E 003°42'0 0.0
2018-Jul-08 07:58N 51°28' E 003°42'0 0.0
2018-Jul-08 07:28N 51°28' E 003°42'0 0.0
2018-Jul-08 06:58N 51°28' E 003°42'0 0.0
2018-Jul-08 06:28N 51°28' E 003°42'0 0.0
2018-Jul-08 05:40N 51°28' E 003°41'0 0.0
2018-Jul-08 05:28N 51°28' E 003°42'0 0.0
2018-Jul-08 04:58N 51°28' E 003°42'0 0.0
2018-Jul-08 04:28N 51°28' E 003°42'0 0.0
2018-Jul-08 03:58N 51°28' E 003°42'0 0.0
2018-Jul-08 03:28N 51°28' E 003°42'0 0.0
2018-Jul-08 02:58N 51°28' E 003°41'0 0.0
2018-Jul-08 02:25N 51°28' E 003°41'0 0.0
2018-Jul-08 01:58N 51°28' E 003°41'0 0.0
2018-Jul-08 01:28N 51°28' E 003°41'0 0.0
2018-Jul-08 00:58N 51°28' E 003°42'0 0.0
2018-Jul-08 00:25N 51°28' E 003°41'0 0.0
2018-Jul-07 23:55N 51°28' E 003°42'0 0.0
2018-Jul-07 23:28N 51°28' E 003°42'0 0.0
2018-Jul-07 22:55N 51°28' E 003°41'0 0.0
2018-Jul-07 22:25N 51°28' E 003°42'0 0.0
2018-Jul-07 21:58N 51°28' E 003°42'0 0.0
2018-Jul-07 21:22N 51°28' E 003°42'0 0.0
2018-Jul-07 20:55N 51°28' E 003°42'0 0.0
2018-Jul-07 20:28N 51°28' E 003°42'0 0.0
2018-Jul-07 19:58N 51°28' E 003°42'0 0.0
2018-Jul-07 19:28N 51°28' E 003°42'0 0.0
2018-Jul-07 18:55N 51°28' E 003°42'0 0.0
2018-Jul-07 18:19N 51°28' E 003°42'0 0.0
2018-Jul-07 17:55N 51°28' E 003°42'0 0.0
2018-Jul-07 17:28N 51°28' E 003°42'0 0.0
2018-Jul-07 16:58N 51°28' E 003°42'0 0.0
2018-Jul-07 16:28N 51°28' E 003°42'0 0.0
2018-Jul-07 15:58N 51°28' E 003°42'0 0.0
2018-Jul-07 15:28N 51°28' E 003°42'0 0.0
2018-Jul-07 14:58N 51°28' E 003°41'0 0.0
2018-Jul-07 14:28N 51°28' E 003°42'0 0.0
2018-Jul-07 13:55N 51°28' E 003°42'0 0.0
2018-Jul-07 13:28N 51°28' E 003°41'0 0.0
2018-Jul-07 12:58N 51°28' E 003°41'0 0.0
2018-Jul-07 12:25N 51°28' E 003°42'0 0.0
2018-Jul-07 11:58N 51°28' E 003°42'0 0.0
2018-Jul-07 11:28N 51°28' E 003°42'0 0.0
2018-Jul-07 10:58N 51°28' E 003°42'0 0.0
2018-Jul-07 10:28N 51°28' E 003°42'0 0.0
2018-Jul-07 09:58N 51°28' E 003°41'0 0.0
2018-Jul-07 09:28N 51°28' E 003°42'0 0.0
2018-Jul-07 08:58N 51°28' E 003°42'0 0.0
2018-Jul-07 08:28N 51°28' E 003°42'0 0.0
2018-Jul-07 07:52N 51°28' E 003°42'0 0.0
2018-Jul-07 07:25N 51°28' E 003°42'0 0.0
2018-Jul-07 06:55N 51°28' E 003°42'0 0.0
2018-Jul-07 06:22N 51°28' E 003°42'0 0.0
2018-Jul-07 05:58N 51°28' E 003°42'0 0.0
2018-Jul-07 05:28N 51°28' E 003°42'0 0.0
2018-Jul-07 04:58N 51°28' E 003°42'0 0.0
2018-Jul-07 04:28N 51°28' E 003°42'0 0.0
2018-Jul-07 03:58N 51°28' E 003°41'0 0.0
2018-Jul-07 03:28N 51°28' E 003°42'0 0.0
2018-Jul-07 02:58N 51°28' E 003°41'0 0.0
2018-Jul-07 02:28N 51°28' E 003°42'0 0.0
2018-Jul-07 01:58N 51°28' E 003°42'0 0.0
2018-Jul-07 01:25N 51°28' E 003°42'0 0.0
2018-Jul-07 00:55N 51°28' E 003°42'0 0.0
2018-Jul-07 00:28N 51°28' E 003°41'0 0.0
2018-Jul-06 23:58N 51°28' E 003°41'0 0.0
2018-Jul-06 23:22N 51°28' E 003°42'0 0.0
2018-Jul-06 22:55N 51°28' E 003°41'0 0.0
2018-Jul-06 22:25N 51°28' E 003°42'0 0.0
2018-Jul-06 21:58N 51°28' E 003°42'0 0.0
2018-Jul-06 21:22N 51°28' E 003°41'0 0.0
2018-Jul-06 20:58N 51°28' E 003°41'0 0.0
2018-Jul-06 20:22N 51°28' E 003°42'0 0.0
2018-Jul-06 19:58N 51°28' E 003°42'0 0.0
2018-Jul-06 19:28N 51°28' E 003°42'0 0.0
2018-Jul-06 18:52N 51°28' E 003°42'0 0.0
2018-Jul-06 18:28N 51°28' E 003°42'0 0.0
2018-Jul-06 17:58N 51°28' E 003°42'0 0.0
2018-Jul-06 17:25N 51°28' E 003°42'0 0.0
2018-Jul-06 16:55N 51°28' E 003°42'0 0.0
2018-Jul-06 16:28N 51°28' E 003°42'0 0.0
2018-Jul-06 15:58N 51°28' E 003°42'0 0.0
2018-Jul-06 15:28N 51°28' E 003°42'0 0.0
2018-Jul-06 14:58N 51°28' E 003°42'0 0.0
2018-Jul-06 14:19N 51°28' E 003°42'0 0.0
2018-Jul-06 13:55N 51°28' E 003°42'0 0.0
2018-Jul-06 13:19N 51°28' E 003°41'0 0.0
2018-Jul-06 12:58N 51°28' E 003°41'0 0.0
2018-Jul-06 12:28N 51°28' E 003°41'0 0.0
2018-Jul-06 11:58N 51°28' E 003°42'0 0.0
2018-Jul-06 11:28N 51°28' E 003°42'0 0.0
2018-Jul-06 10:58N 51°28' E 003°42'0 0.0
2018-Jul-06 10:25N 51°28' E 003°42'0 0.0
2018-Jul-06 09:58N 51°28' E 003°41'0 0.0
2018-Jul-06 09:28N 51°28' E 003°42'0 0.0
2018-Jul-06 08:58N 51°28' E 003°42'0 0.0
2018-Jul-06 08:22N 51°28' E 003°42'0 0.0
2018-Jul-06 07:55N 51°28' E 003°42'0 0.0
2018-Jul-06 07:28N 51°28' E 003°42'0 0.0
2018-Jul-06 06:58N 51°28' E 003°42'0 0.0
2018-Jul-06 06:30N 51°28' E 003°42'0 0.0
2018-Jul-06 06:00N 51°28' E 003°42'  

Dump ship's entire track history